createdAt,value
2022-10-06T00:00:42.228Z,41.56
2022-10-06T00:02:46.755Z,41.71
2022-10-06T00:04:51.174Z,41.69
2022-10-06T00:06:55.527Z,41.7
2022-10-06T00:08:59.867Z,41.72
2022-10-06T00:11:04.231Z,41.7
2022-10-06T00:13:08.594Z,41.88
2022-10-06T00:15:12.928Z,41.66
2022-10-06T00:17:17.276Z,41.75
2022-10-06T00:19:21.604Z,41.69
2022-10-06T00:21:25.916Z,41.71
2022-10-06T00:23:30.322Z,41.53
2022-10-06T00:25:34.676Z,41.51
2022-10-06T00:27:39.006Z,41.54
2022-10-06T00:29:43.320Z,41.7
2022-10-06T00:31:47.632Z,41.5
2022-10-06T00:33:51.967Z,41.53
2022-10-06T00:35:56.326Z,41.53
2022-10-06T00:38:00.661Z,41.66
2022-10-06T00:40:05.218Z,41.76
2022-10-06T00:42:10.035Z,41.7
2022-10-06T00:44:14.454Z,41.75
2022-10-06T00:46:19.084Z,41.73
2022-10-06T00:48:23.578Z,41.64
2022-10-06T00:50:27.909Z,41.71
2022-10-06T00:52:32.260Z,41.67
2022-10-06T00:54:36.611Z,41.78
2022-10-06T00:56:41.294Z,41.85
2022-10-06T00:58:45.680Z,41.67
2022-10-06T01:00:50.008Z,41.8
2022-10-06T01:02:54.550Z,41.77
2022-10-06T01:04:58.926Z,41.72
2022-10-06T01:07:03.358Z,41.73
2022-10-06T01:09:07.754Z,41.86
2022-10-06T01:11:12.096Z,41.85
2022-10-06T01:13:16.467Z,41.82
2022-10-06T01:15:20.838Z,41.81
2022-10-06T01:17:25.181Z,41.8
2022-10-06T01:19:29.522Z,41.82
2022-10-06T01:21:33.841Z,41.8
2022-10-06T01:23:38.185Z,41.82
2022-10-06T01:25:42.570Z,41.93
2022-10-06T01:27:46.915Z,41.85
2022-10-06T01:29:51.230Z,41.91
2022-10-06T01:31:55.598Z,41.88
2022-10-06T01:33:59.892Z,41.9
2022-10-06T01:36:04.210Z,41.93
2022-10-06T01:38:08.570Z,41.94
2022-10-06T01:40:13.175Z,42.16
2022-10-06T01:42:17.501Z,42.04
2022-10-06T01:44:21.852Z,41.97
2022-10-06T01:46:26.407Z,42.05
2022-10-06T01:48:32.296Z,42.03
2022-10-06T01:50:36.869Z,42.02
2022-10-06T01:52:41.195Z,42.04
2022-10-06T01:54:45.512Z,42.09
2022-10-06T01:56:49.851Z,42.1
2022-10-06T01:58:54.189Z,42.1
2022-10-06T02:00:58.522Z,42.11
2022-10-06T02:03:02.843Z,42.13
2022-10-06T02:05:07.177Z,42.02
2022-10-06T02:07:11.509Z,42.16
2022-10-06T02:09:15.838Z,42.09
2022-10-06T02:11:20.157Z,42.09
2022-10-06T02:13:24.512Z,42.17
2022-10-06T02:15:28.837Z,42.16
2022-10-06T02:17:33.202Z,42.15
2022-10-06T02:19:37.530Z,42.09
2022-10-06T02:21:41.848Z,42.11
2022-10-06T02:23:46.243Z,42.14
2022-10-06T02:25:50.562Z,42.25
2022-10-06T02:27:54.960Z,42.12
2022-10-06T02:29:59.343Z,42.09
2022-10-06T02:32:03.695Z,42.08
2022-10-06T02:34:08.008Z,42.31
2022-10-06T02:36:12.390Z,42.14
2022-10-06T02:38:16.738Z,42.2
2022-10-06T02:40:21.065Z,42.1
2022-10-06T02:42:25.382Z,42.14
2022-10-06T02:44:29.726Z,42.21
2022-10-06T02:46:34.329Z,42.18
2022-10-06T02:48:38.952Z,42.17
2022-10-06T02:50:43.240Z,42.19
2022-10-06T02:52:47.722Z,42.12
2022-10-06T02:54:52.015Z,42.16
2022-10-06T02:56:56.354Z,42.14
2022-10-06T02:59:00.685Z,42.21
2022-10-06T03:01:05.018Z,42.3
2022-10-06T03:03:09.629Z,42.29
2022-10-06T03:05:14.043Z,42.35
2022-10-06T03:07:18.374Z,42.35
2022-10-06T03:09:22.705Z,42.17
2022-10-06T03:11:27.464Z,42.16
2022-10-06T03:13:31.853Z,42.28
2022-10-06T03:15:36.181Z,42.21
2022-10-06T03:17:40.550Z,42.35
2022-10-06T03:19:44.882Z,42.24
2022-10-06T03:21:49.202Z,42.22
2022-10-06T03:23:53.533Z,42.23
2022-10-06T03:25:57.911Z,42.27
2022-10-06T03:28:02.458Z,42.21
2022-10-06T03:30:06.823Z,42.29
2022-10-06T03:32:11.158Z,42.29
2022-10-06T03:34:15.481Z,42.38
2022-10-06T03:36:19.901Z,42.33
2022-10-06T03:38:24.209Z,42.4
2022-10-06T03:40:28.618Z,42.49
2022-10-06T03:42:32.917Z,42.62
2022-10-06T03:44:37.263Z,42.49
2022-10-06T03:46:41.802Z,42.64
2022-10-06T03:48:46.158Z,42.46
2022-10-06T03:50:50.477Z,42.53
2022-10-06T03:52:54.782Z,42.67
2022-10-06T03:54:59.129Z,42.55
2022-10-06T03:57:03.454Z,42.57
2022-10-06T03:59:07.790Z,42.52
2022-10-06T04:01:12.356Z,42.58
2022-10-06T04:03:16.786Z,42.56
2022-10-06T04:05:21.130Z,42.46
2022-10-06T04:07:25.473Z,42.34
2022-10-06T04:09:29.843Z,42.38
2022-10-06T04:11:34.214Z,42.45
2022-10-06T04:13:38.540Z,42.38
2022-10-06T04:15:42.902Z,42.35
2022-10-06T04:17:47.258Z,42.43
2022-10-06T04:19:51.594Z,42.38
2022-10-06T04:21:55.917Z,42.43
2022-10-06T04:24:00.259Z,42.47
2022-10-06T04:26:04.586Z,42.58
2022-10-06T04:28:09.205Z,42.49
2022-10-06T04:30:13.730Z,42.55
2022-10-06T04:32:18.078Z,42.52
2022-10-06T04:34:22.382Z,42.54
2022-10-06T04:36:26.721Z,42.44
2022-10-06T04:38:32.334Z,42.49
2022-10-06T04:40:36.994Z,42.62
2022-10-06T04:42:41.352Z,42.57
2022-10-06T04:44:45.826Z,42.55
2022-10-06T04:46:50.610Z,42.58
2022-10-06T04:48:54.954Z,42.71
2022-10-06T04:50:59.272Z,42.63
2022-10-06T04:53:03.632Z,42.63
2022-10-06T04:55:07.923Z,42.7
2022-10-06T04:57:12.274Z,42.76
2022-10-06T04:59:16.616Z,42.65
2022-10-06T05:01:21.209Z,42.58
2022-10-06T05:03:25.606Z,42.92
2022-10-06T05:05:29.925Z,42.87
2022-10-06T05:07:34.263Z,42.85
2022-10-06T05:09:38.607Z,42.76
2022-10-06T05:11:42.961Z,42.63
2022-10-06T05:13:47.296Z,42.65
2022-10-06T05:15:51.668Z,42.55
2022-10-06T05:17:55.978Z,42.44
2022-10-06T05:20:00.289Z,42.52
2022-10-06T05:22:04.634Z,42.99
2022-10-06T05:24:09.458Z,43.09
2022-10-06T05:26:13.753Z,43.15
2022-10-06T05:28:18.299Z,43.24
2022-10-06T05:30:22.681Z,43.23
2022-10-06T05:32:27.000Z,43.31
2022-10-06T05:34:31.310Z,43.42
2022-10-06T05:36:35.710Z,43.66
2022-10-06T05:38:40.034Z,43.64
2022-10-06T05:40:44.361Z,43.73
2022-10-06T05:42:48.716Z,43.56
2022-10-06T05:44:53.048Z,43.64
2022-10-06T05:46:57.400Z,43.59
2022-10-06T05:49:01.732Z,43.53
2022-10-06T05:51:06.088Z,43.51
2022-10-06T05:53:10.430Z,43.55
2022-10-06T05:55:14.797Z,43.61
2022-10-06T05:57:19.248Z,43.54
2022-10-06T05:59:23.596Z,43.62
2022-10-06T06:01:28.395Z,43.39
2022-10-06T06:03:32.796Z,43.16
2022-10-06T06:05:37.176Z,43.12
2022-10-06T06:07:41.751Z,43.08
2022-10-06T06:09:46.083Z,43.11
2022-10-06T06:11:50.440Z,43.23
2022-10-06T06:13:54.790Z,43.2
2022-10-06T06:15:59.242Z,43.16
2022-10-06T06:18:03.604Z,43.35
2022-10-06T06:20:07.932Z,43.22
2022-10-06T06:22:12.304Z,43.29
2022-10-06T06:24:16.645Z,43.39
2022-10-06T06:26:20.988Z,43.63
2022-10-06T06:28:25.573Z,43.61
2022-10-06T06:30:29.927Z,43.79
2022-10-06T06:32:34.272Z,43.73
2022-10-06T06:34:38.632Z,43.87
2022-10-06T06:36:43.322Z,43.79
2022-10-06T06:38:47.662Z,43.91
2022-10-06T06:40:52.020Z,43.93
2022-10-06T06:42:56.346Z,43.8
2022-10-06T06:45:00.708Z,43.8
2022-10-06T06:47:05.045Z,43.77
2022-10-06T06:49:09.421Z,43.71
2022-10-06T06:51:13.778Z,43.75
2022-10-06T06:53:18.428Z,43.73
2022-10-06T06:55:22.782Z,43.83
2022-10-06T06:57:27.131Z,43.85
2022-10-06T06:59:31.626Z,43.81
2022-10-06T07:01:36.155Z,43.88
2022-10-06T07:03:59.992Z,43.83
2022-10-06T07:06:04.354Z,43.68
2022-10-06T07:08:08.746Z,43.67
2022-10-06T07:10:13.117Z,43.61
2022-10-06T07:12:17.501Z,43.6
2022-10-06T07:14:21.886Z,43.52
2022-10-06T07:16:26.281Z,43.52
2022-10-06T07:18:32.341Z,43.59
2022-10-06T07:20:36.810Z,43.49
2022-10-06T07:22:41.172Z,43.53
2022-10-06T07:24:45.585Z,43.53
2022-10-06T07:26:49.938Z,43.56
2022-10-06T07:28:54.301Z,43.64
2022-10-06T07:30:58.845Z,43.6
2022-10-06T07:33:03.191Z,43.63
2022-10-06T07:35:07.637Z,43.63
2022-10-06T07:37:15.125Z,43.63
2022-10-06T07:39:19.515Z,43.58
2022-10-06T07:41:23.866Z,43.68
2022-10-06T07:43:28.232Z,43.69
2022-10-06T07:45:32.960Z,43.61
2022-10-06T07:47:37.516Z,43.62
2022-10-06T07:49:41.886Z,43.67
2022-10-06T07:51:46.315Z,43.73
2022-10-06T07:53:50.672Z,43.76
2022-10-06T07:55:54.978Z,43.75
2022-10-06T07:57:59.288Z,43.6
2022-10-06T08:00:05.585Z,43.63
2022-10-06T08:02:10.474Z,43.65
2022-10-06T08:04:14.874Z,43.59
2022-10-06T08:06:19.221Z,43.65
2022-10-06T08:08:23.938Z,43.59
2022-10-06T08:10:28.343Z,43.62
2022-10-06T08:12:32.816Z,43.6
2022-10-06T08:14:37.219Z,43.56
2022-10-06T08:16:41.559Z,43.6
2022-10-06T08:18:49.031Z,43.61
2022-10-06T08:20:53.366Z,43.59
2022-10-06T08:22:57.723Z,43.58
2022-10-06T08:25:10.403Z,43.61
2022-10-06T08:27:15.028Z,43.63
2022-10-06T08:29:19.390Z,43.6
2022-10-06T08:31:24.205Z,43.64
2022-10-06T08:33:28.602Z,43.77
2022-10-06T08:35:32.993Z,43.85
2022-10-06T08:37:37.381Z,43.86
2022-10-06T08:39:41.747Z,43.84
2022-10-06T08:41:46.129Z,43.9
2022-10-06T08:43:50.474Z,43.92
2022-10-06T08:45:56.177Z,43.97
2022-10-06T08:48:00.546Z,43.92
2022-10-06T08:50:04.885Z,43.94
2022-10-06T08:52:09.208Z,43.95
2022-10-06T08:54:13.570Z,43.91
2022-10-06T08:56:17.913Z,43.96
2022-10-06T08:58:22.291Z,43.92
2022-10-06T09:00:26.661Z,44.07
2022-10-06T09:02:31.500Z,44.09
2022-10-06T09:04:35.932Z,44.03
2022-10-06T09:06:40.243Z,44.09
2022-10-06T09:08:44.589Z,44.15
2022-10-06T09:10:48.949Z,44.15
2022-10-06T09:12:53.305Z,44.15
2022-10-06T09:14:57.894Z,44.09
2022-10-06T09:17:02.224Z,44.2
2022-10-06T09:19:10.907Z,44.18
2022-10-06T09:21:15.215Z,44.2
2022-10-06T09:23:19.623Z,44.18
2022-10-06T09:25:23.985Z,44.2
2022-10-06T09:27:28.298Z,44.17
2022-10-06T09:29:32.662Z,44.18
2022-10-06T09:31:37.237Z,44.18
2022-10-06T09:33:41.637Z,44.13
2022-10-06T09:35:45.987Z,44.13
2022-10-06T09:37:50.308Z,44.19
2022-10-06T09:39:55.547Z,44.24
2022-10-06T09:42:00.187Z,44.23
2022-10-06T09:44:04.550Z,44.2
2022-10-06T09:48:13.271Z,44.25
2022-10-06T09:50:17.814Z,44.26
2022-10-06T09:52:22.250Z,44.31
2022-10-06T09:54:26.635Z,44.29
2022-10-06T09:56:30.986Z,44.18
2022-10-06T09:58:35.377Z,44.23
2022-10-06T10:00:39.888Z,44.26
2022-10-06T10:02:44.497Z,44.34
2022-10-06T10:04:53.410Z,44.3
2022-10-06T10:06:57.813Z,44.39
2022-10-06T10:09:02.181Z,44.32
2022-10-06T10:11:06.526Z,44.39
2022-10-06T10:13:10.871Z,44.34
2022-10-06T10:15:15.228Z,44.36
2022-10-06T10:17:19.616Z,44.37
2022-10-06T10:19:24.065Z,44.39
2022-10-06T10:21:28.495Z,44.37
2022-10-06T10:23:34.067Z,44.45
2022-10-06T10:25:38.423Z,44.34
2022-10-06T10:27:42.839Z,44.29
2022-10-06T10:29:47.205Z,44.26
2022-10-06T10:31:51.820Z,44.23
2022-10-06T10:34:25.193Z,44.25
2022-10-06T10:36:29.889Z,44.08
2022-10-06T10:38:34.235Z,44.13
2022-10-06T10:40:38.609Z,44.08
2022-10-06T10:42:43.024Z,44.14
2022-10-06T10:44:47.405Z,44.17
2022-10-06T10:46:51.976Z,44.19
2022-10-06T10:48:56.334Z,44.19
2022-10-06T10:51:00.699Z,44.25
2022-10-06T10:53:05.240Z,44.16
2022-10-06T10:55:09.645Z,44.15
2022-10-06T10:57:14.211Z,44.16
2022-10-06T10:59:18.722Z,44.19
2022-10-06T11:01:23.239Z,44.19
2022-10-06T11:03:27.597Z,44.12
2022-10-06T11:05:31.973Z,44.12
2022-10-06T11:07:36.380Z,44.2
2022-10-06T11:09:40.706Z,44.19
2022-10-06T11:11:52.018Z,44.11
2022-10-06T11:13:57.084Z,44.08
2022-10-06T11:16:01.661Z,44.07
2022-10-06T11:18:06.019Z,44.08
2022-10-06T11:20:10.389Z,44.06
2022-10-06T11:22:14.705Z,44.09
2022-10-06T11:24:19.081Z,44.12
2022-10-06T11:26:23.507Z,44.12
2022-10-06T11:28:28.180Z,44.1
2022-10-06T11:30:32.585Z,44.09
2022-10-06T11:32:36.929Z,44.09
2022-10-06T11:34:41.266Z,44.07
2022-10-06T11:36:45.633Z,44.07
2022-10-06T11:38:49.974Z,44.03
2022-10-06T11:40:54.350Z,44.07
2022-10-06T11:42:58.679Z,44.06
2022-10-06T11:45:03.886Z,44.24
2022-10-06T11:47:08.299Z,44.2
2022-10-06T11:49:12.676Z,44.12
2022-10-06T11:51:17.140Z,44.26
2022-10-06T11:53:21.490Z,44.15
2022-10-06T11:55:25.928Z,44.11
2022-10-06T11:57:33.229Z,43.71
2022-10-06T11:59:37.593Z,43.79
2022-10-06T12:01:42.081Z,43.54
2022-10-06T12:03:46.512Z,43.44
2022-10-06T12:05:58.600Z,43.34
2022-10-06T12:08:03.013Z,43.19
2022-10-06T12:10:07.396Z,43.38
2022-10-06T12:12:11.761Z,43.38
2022-10-06T12:17:11.647Z,43.43
2022-10-06T12:19:18.484Z,43.5
2022-10-06T12:21:22.834Z,43.55
2022-10-06T12:23:27.202Z,43.66
2022-10-06T12:25:31.591Z,43.62
2022-10-06T12:27:35.938Z,43.66
2022-10-06T12:29:40.322Z,43.75
2022-10-06T12:31:44.704Z,43.82
2022-10-06T12:33:49.072Z,43.83
2022-10-06T12:35:53.421Z,43.87
2022-10-06T12:37:57.745Z,43.95
2022-10-06T12:40:02.150Z,43.94
2022-10-06T12:42:06.481Z,44
2022-10-06T12:44:10.851Z,44.05
2022-10-06T12:46:15.384Z,44.11
2022-10-06T12:48:19.755Z,44.17
2022-10-06T12:50:24.135Z,44.19
2022-10-06T12:52:28.491Z,44.22
2022-10-06T12:54:32.825Z,44.25
2022-10-06T12:56:37.208Z,44.25
2022-10-06T12:58:41.692Z,44.24
2022-10-06T13:00:46.108Z,44.3
2022-10-06T13:02:50.787Z,44.26
2022-10-06T13:04:55.435Z,44.34
2022-10-06T13:07:01.376Z,44.39
2022-10-06T13:09:06.477Z,44.39
2022-10-06T13:11:10.879Z,44.46
2022-10-06T13:13:15.238Z,44.5
2022-10-06T13:15:19.951Z,44.46
2022-10-06T13:17:24.425Z,44.5
2022-10-06T13:19:28.796Z,44.03
2022-10-06T13:21:33.116Z,43.95
2022-10-06T13:23:37.542Z,43.95
2022-10-06T13:25:41.968Z,43.48
2022-10-06T13:27:46.409Z,43.42
2022-10-06T13:29:50.753Z,43.31
2022-10-06T13:31:55.653Z,43.36
2022-10-06T13:34:00.091Z,43.15
2022-10-06T13:36:04.540Z,43.41
2022-10-06T13:38:08.950Z,43.57
2022-10-06T13:40:45.598Z,43.64
2022-10-06T13:42:50.314Z,43.68
2022-10-06T13:44:54.688Z,43.65
2022-10-06T13:46:59.031Z,43.65
2022-10-06T13:49:03.468Z,43.61
2022-10-06T13:51:07.867Z,43.66
2022-10-06T13:53:12.283Z,43.7
2022-10-06T13:55:16.735Z,44.11
2022-10-06T13:57:21.205Z,45.03
2022-10-06T13:59:25.595Z,44.84
2022-10-06T14:01:30.173Z,44.55
2022-10-06T14:05:40.212Z,45.08
2022-10-06T14:07:44.631Z,44.97
2022-10-06T14:09:49.005Z,45.29
2022-10-06T14:11:53.388Z,44.96
2022-10-06T14:13:57.881Z,45.22
2022-10-06T14:16:02.446Z,45.32
2022-10-06T14:18:07.020Z,45.54
2022-10-06T14:20:11.396Z,45.88
2022-10-06T14:22:15.746Z,46.69
2022-10-06T14:24:20.121Z,46.1
2022-10-06T14:26:24.578Z,46.35
2022-10-06T14:28:29.450Z,46.1
2022-10-06T14:30:33.882Z,46.04
2022-10-06T14:32:38.394Z,45.96
2022-10-06T14:34:42.817Z,46.04
2022-10-06T14:36:47.200Z,46.12
2022-10-06T14:38:51.545Z,46.11
2022-10-06T14:40:55.974Z,46.4
2022-10-06T14:43:00.379Z,46.44
2022-10-06T14:45:05.249Z,46.51
2022-10-06T14:47:09.581Z,46.78
2022-10-06T14:49:13.929Z,46.74
2022-10-06T14:51:18.352Z,46.51
2022-10-06T14:53:23.023Z,46.56
2022-10-06T14:55:27.427Z,46.57
2022-10-06T14:57:31.781Z,46.81
2022-10-06T14:59:36.163Z,46.44
2022-10-06T15:01:40.582Z,46.53
2022-10-06T15:03:51.115Z,46.48
2022-10-06T15:05:55.577Z,46.38
2022-10-06T15:07:59.939Z,46.46
2022-10-06T15:10:04.294Z,46.47
2022-10-06T15:12:08.790Z,46.44
2022-10-06T15:14:13.126Z,46.53
2022-10-06T15:16:17.744Z,46.41
2022-10-06T15:18:22.152Z,46.43
2022-10-06T15:20:26.495Z,46.5
2022-10-06T15:22:30.878Z,46.49
2022-10-06T15:24:35.787Z,46.67
2022-10-06T15:26:40.164Z,46.99
2022-10-06T15:28:44.688Z,46.79
2022-10-06T15:30:49.282Z,46.92
2022-10-06T15:32:53.686Z,46.94
2022-10-06T15:34:58.082Z,47.27
2022-10-06T15:37:02.411Z,47.35
2022-10-06T15:39:06.801Z,47.23
2022-10-06T15:41:11.070Z,47.28
2022-10-06T15:43:15.394Z,47.45
2022-10-06T15:45:19.784Z,47.71
2022-10-06T15:47:24.182Z,48.11
2022-10-06T15:49:28.509Z,48.19
2022-10-06T15:51:32.896Z,48.89
2022-10-06T15:53:37.282Z,49.33
2022-10-06T15:55:41.646Z,49.82
2022-10-06T15:57:46.015Z,50.21
2022-10-06T15:59:50.419Z,50.28
2022-10-06T16:01:55.506Z,50.48
2022-10-06T16:03:59.994Z,50.55
2022-10-06T16:06:04.358Z,50.69
2022-10-06T16:08:08.733Z,51.13
2022-10-06T16:10:13.149Z,41.98
2022-10-06T16:12:17.596Z,39.65
2022-10-06T16:14:21.931Z,39.96
2022-10-06T16:16:26.497Z,39.72
2022-10-06T16:18:30.970Z,39.07
2022-10-06T16:20:35.341Z,39.08
2022-10-06T16:22:40.958Z,39.01
2022-10-06T16:24:45.820Z,39.4
2022-10-06T16:26:50.334Z,39.53
2022-10-06T16:28:55.175Z,39.47
2022-10-06T16:31:00.047Z,39.88
2022-10-06T16:33:04.590Z,40.07
2022-10-06T16:35:09.187Z,39.71
2022-10-06T16:37:13.791Z,39.63
2022-10-06T16:39:18.354Z,39.82
2022-10-06T16:41:22.924Z,39.86
2022-10-06T16:43:27.514Z,40.04
2022-10-06T16:45:32.043Z,40.2
2022-10-06T16:47:36.694Z,40.53
2022-10-06T16:49:41.263Z,40.63
2022-10-06T16:51:45.820Z,40.63
2022-10-06T16:53:50.368Z,40.8
2022-10-06T16:55:54.876Z,40.44
2022-10-06T16:57:59.413Z,40.65
2022-10-06T17:00:04.315Z,40.41
2022-10-06T17:02:08.864Z,40.4
2022-10-06T17:04:13.732Z,40.37
2022-10-06T17:06:18.280Z,40.34
2022-10-06T17:08:22.786Z,40.34
2022-10-06T17:10:27.367Z,41.24
2022-10-06T17:12:31.906Z,41.01
2022-10-06T17:14:36.461Z,41.54
2022-10-06T17:16:41.375Z,41.61
2022-10-06T17:18:45.955Z,41.61
2022-10-06T17:20:50.486Z,41.53
2022-10-06T17:22:54.989Z,41.78
2022-10-06T17:24:59.551Z,41.78
2022-10-06T17:27:04.099Z,41.62
2022-10-06T17:29:08.599Z,41.8
2022-10-06T17:31:13.327Z,41.93
2022-10-06T17:33:17.855Z,41.7
2022-10-06T17:35:22.438Z,42.51
2022-10-06T17:37:26.996Z,42.75
2022-10-06T17:39:31.499Z,42.41
2022-10-06T17:41:36.052Z,43.07
2022-10-06T17:43:40.532Z,42.88
2022-10-06T17:45:45.321Z,43.1
2022-10-06T17:47:49.911Z,42.45
2022-10-06T17:49:54.443Z,42.03
2022-10-06T17:51:58.995Z,42.28
2022-10-06T17:54:03.533Z,41.89
2022-10-06T17:56:08.130Z,42.3
2022-10-06T17:58:19.858Z,42.03
2022-10-06T18:00:24.473Z,41.98
2022-10-06T18:02:29.359Z,41.49
2022-10-06T18:04:33.933Z,41.45
2022-10-06T18:06:38.412Z,41.45
2022-10-06T18:08:42.941Z,41.35
2022-10-06T18:10:47.520Z,41.68
2022-10-06T18:12:52.079Z,41.33
2022-10-06T18:14:56.617Z,41.18
2022-10-06T18:17:01.464Z,41.28
2022-10-06T18:19:06.121Z,41.24
2022-10-06T18:21:10.679Z,40.97
2022-10-06T18:23:15.252Z,40.44
2022-10-06T18:25:26.803Z,40.5
2022-10-06T18:27:31.445Z,40.56
2022-10-06T18:29:36.029Z,40.54
2022-10-06T18:31:40.831Z,40.8
2022-10-06T18:35:30.028Z,40.54
2022-10-06T18:38:15.689Z,40.74
2022-10-06T18:40:20.264Z,40.83
2022-10-06T18:42:24.815Z,40.96
2022-10-06T18:44:29.346Z,40.92
2022-10-06T18:46:34.158Z,40.82
2022-10-06T18:48:38.733Z,40.72
2022-10-06T18:50:43.284Z,40.6
2022-10-06T18:52:47.809Z,40.63
2022-10-06T18:54:52.359Z,40.62
2022-10-06T18:56:56.918Z,40.34
2022-10-06T18:59:01.454Z,40.75
2022-10-06T19:01:06.530Z,40.52
2022-10-06T19:03:11.201Z,40.16
2022-10-06T19:05:15.755Z,39.99
2022-10-06T19:07:20.310Z,40.06
2022-10-06T19:09:24.854Z,39.91
2022-10-06T19:11:29.400Z,40.01
2022-10-06T19:13:33.953Z,39.67
2022-10-06T19:15:38.483Z,39.57
2022-10-06T19:17:44.110Z,40.23
2022-10-06T19:19:48.938Z,40.36
2022-10-06T19:21:53.482Z,40.43
2022-10-06T19:23:58.007Z,40.15
2022-10-06T19:26:02.576Z,40.01
2022-10-06T19:28:07.254Z,40.1
2022-10-06T19:30:11.837Z,40.21
2022-10-06T19:32:16.379Z,41.06
2022-10-06T19:34:20.897Z,40.59
2022-10-06T19:36:25.410Z,40.54
2022-10-06T19:38:29.941Z,40.58
2022-10-06T19:40:34.499Z,40.57
2022-10-06T19:42:39.014Z,40.48
2022-10-06T19:44:45.370Z,40.53
2022-10-06T19:46:49.907Z,40.55
2022-10-06T19:48:54.412Z,40.61
2022-10-06T19:50:58.921Z,40.6
2022-10-06T19:53:03.491Z,41.22
2022-10-06T19:55:08.037Z,40.83
2022-10-06T19:57:12.678Z,41.57
2022-10-06T19:59:17.202Z,41.71
2022-10-06T20:01:22.089Z,41.74
2022-10-06T20:03:26.673Z,41.33
2022-10-06T20:05:31.223Z,41.25
2022-10-06T20:07:35.771Z,41.09
2022-10-06T20:09:40.301Z,40.72
2022-10-06T20:11:44.803Z,40.49
2022-10-06T20:13:49.337Z,40.3
2022-10-06T20:15:53.856Z,40.2
2022-10-06T20:17:58.436Z,39.9
2022-10-06T20:20:02.943Z,39.89
2022-10-06T20:22:07.438Z,39.65
2022-10-06T20:24:12.039Z,39.54
2022-10-06T20:26:16.572Z,39.31
2022-10-06T20:28:21.302Z,39.35
2022-10-06T20:30:25.924Z,39.32
2022-10-06T20:32:30.423Z,39.38
2022-10-06T20:34:35.379Z,39.16
2022-10-06T20:36:39.890Z,39.11
2022-10-06T20:38:44.428Z,38.98
2022-10-06T20:40:48.931Z,38.89
2022-10-06T20:42:53.445Z,38.89
2022-10-06T20:44:58.023Z,38.8
2022-10-06T20:47:02.554Z,38.78
2022-10-06T20:49:07.081Z,38.96
2022-10-06T20:51:11.567Z,38.84
2022-10-06T20:53:16.148Z,38.78
2022-10-06T20:55:20.689Z,38.82
2022-10-06T20:57:25.220Z,38.75
2022-10-06T20:59:29.740Z,38.64
2022-10-06T21:01:34.574Z,38.59
2022-10-06T21:03:39.282Z,38.54
2022-10-06T21:05:43.905Z,38.34
2022-10-06T21:07:49.044Z,38.16
2022-10-06T21:09:54.590Z,38.15
2022-10-06T21:11:59.273Z,38.16
2022-10-06T21:14:03.929Z,38.13
2022-10-06T21:16:08.812Z,38.46
2022-10-06T21:18:13.496Z,38.7
2022-10-06T21:20:18.156Z,38.4
2022-10-06T21:22:22.808Z,38.49
2022-10-06T21:24:27.583Z,38.37
2022-10-06T21:26:32.188Z,38.14
2022-10-06T21:28:37.158Z,38.35
2022-10-06T21:30:41.805Z,38.19
2022-10-06T21:32:46.451Z,38.1
2022-10-06T21:34:51.109Z,38.19
2022-10-06T21:36:55.748Z,38.12
2022-10-06T21:39:00.407Z,38.07
2022-10-06T21:41:05.037Z,38.07
2022-10-06T21:43:09.649Z,38.16
2022-10-06T21:45:14.318Z,38.16
2022-10-06T21:47:19.503Z,38.03
2022-10-06T21:49:24.167Z,38.13
2022-10-06T21:51:28.774Z,38.15
2022-10-06T21:53:33.421Z,38.37
2022-10-06T21:55:38.030Z,38.2
2022-10-06T21:57:43.293Z,38.09
2022-10-06T21:59:48.068Z,37.98
2022-10-06T22:01:53.270Z,38.13
2022-10-06T22:03:57.947Z,37.86
2022-10-06T22:06:02.575Z,38.03
2022-10-06T22:08:07.306Z,37.96
2022-10-06T22:10:11.906Z,37.85
2022-10-06T22:12:16.518Z,37.83
2022-10-06T22:14:21.168Z,37.65
2022-10-06T22:16:26.053Z,37.81
2022-10-06T22:18:30.730Z,37.71
2022-10-06T22:20:35.375Z,37.73
2022-10-06T22:22:40.027Z,37.78
2022-10-06T22:24:44.680Z,37.53
2022-10-06T22:26:49.308Z,37.68
2022-10-06T22:28:53.949Z,37.71
2022-10-06T22:30:58.754Z,37.97
2022-10-06T22:33:03.441Z,37.67
2022-10-06T22:35:08.046Z,37.66
2022-10-06T22:37:12.681Z,37.68
2022-10-06T22:39:17.425Z,37.65
2022-10-06T22:41:22.112Z,37.78
2022-10-06T22:43:26.811Z,37.41
2022-10-06T22:45:31.451Z,37.56
2022-10-06T22:47:36.107Z,37.48
2022-10-06T22:49:40.720Z,37.32
2022-10-06T22:51:45.337Z,37.41
2022-10-06T22:53:52.903Z,37.4
2022-10-06T22:56:00.091Z,37.25
2022-10-06T22:58:04.839Z,37.3
2022-10-06T23:00:09.577Z,37.1
2022-10-06T23:02:14.239Z,37.12
2022-10-06T23:04:18.868Z,37.1
2022-10-06T23:06:23.497Z,37.15
2022-10-06T23:08:36.436Z,37
2022-10-06T23:10:41.043Z,37.07
2022-10-06T23:12:45.684Z,37.01
2022-10-06T23:14:50.306Z,37
2022-10-06T23:16:55.233Z,37.03
2022-10-06T23:18:59.883Z,36.83
2022-10-06T23:21:04.532Z,36.82
2022-10-06T23:23:09.160Z,36.84
2022-10-06T23:25:13.775Z,36.75
2022-10-06T23:27:18.408Z,36.83
2022-10-06T23:29:23.060Z,36.83
2022-10-06T23:31:28.052Z,36.8
2022-10-06T23:33:32.700Z,36.73
2022-10-06T23:35:37.435Z,36.74
2022-10-06T23:37:42.583Z,36.73
2022-10-06T23:39:47.389Z,36.68
2022-10-06T23:41:52.005Z,36.67
2022-10-06T23:43:56.615Z,36.89
2022-10-06T23:46:01.584Z,36.81
2022-10-06T23:48:06.371Z,36.79
2022-10-06T23:50:11.101Z,36.7
2022-10-06T23:52:15.783Z,36.81
2022-10-06T23:54:20.435Z,36.68
2022-10-06T23:56:25.085Z,36.7
2022-10-06T23:58:29.726Z,36.72
